createdAt,value
2019-02-24T00:00:20.902Z,62.00
2019-02-24T00:03:25.280Z,62.00
2019-02-24T00:06:29.685Z,61.00
2019-02-24T00:09:23.024Z,61.00
2019-02-24T00:12:27.409Z,61.00
2019-02-24T00:15:31.813Z,62.00
2019-02-24T00:18:36.193Z,61.00
2019-02-24T00:21:40.600Z,63.00
2019-02-24T00:24:44.998Z,63.00
2019-02-24T00:27:49.387Z,62.00
2019-02-24T00:30:53.794Z,62.00
2019-02-24T00:33:58.177Z,62.00
2019-02-24T00:37:02.587Z,62.00
2019-02-24T00:40:06.983Z,62.00
2019-02-24T00:43:11.365Z,62.00
2019-02-24T00:46:15.779Z,62.00
2019-02-24T00:49:09.093Z,62.00
2019-02-24T00:52:13.501Z,62.00
2019-02-24T00:55:17.905Z,62.00
2019-02-24T00:58:22.291Z,62.00
2019-02-24T01:01:26.699Z,62.00
2019-02-24T01:04:31.076Z,62.00
2019-02-24T01:07:35.482Z,62.00
2019-02-24T01:10:39.888Z,62.00
2019-02-24T01:13:44.273Z,62.00
2019-02-24T01:16:48.681Z,62.00
2019-02-24T01:19:53.061Z,62.00
2019-02-24T01:22:57.471Z,62.00
2019-02-24T01:26:01.872Z,62.00
2019-02-24T01:28:55.183Z,63.00
2019-02-24T01:31:59.597Z,62.00
2019-02-24T01:35:03.978Z,62.00
2019-02-24T01:38:08.389Z,62.00
2019-02-24T01:41:12.796Z,62.00
2019-02-24T01:44:17.179Z,62.00
2019-02-24T01:47:21.581Z,62.00
2019-02-24T01:50:25.967Z,62.00
2019-02-24T01:53:30.372Z,62.00
2019-02-24T01:56:34.783Z,62.00
2019-02-24T01:59:39.166Z,62.00
2019-02-24T02:02:44.582Z,62.00
2019-02-24T02:05:48.965Z,62.00
2019-02-24T02:08:42.297Z,62.00
2019-02-24T02:11:46.712Z,62.00
2019-02-24T02:14:51.085Z,62.00
2019-02-24T02:17:55.487Z,62.00
2019-02-24T02:20:59.866Z,62.00
2019-02-24T02:24:04.268Z,62.00
2019-02-24T02:27:08.678Z,62.00
2019-02-24T02:30:13.062Z,62.00
2019-02-24T02:33:17.469Z,62.00
2019-02-24T02:36:21.848Z,61.00
2019-02-24T02:39:15.179Z,61.00
2019-02-24T02:42:19.582Z,61.00
2019-02-24T02:45:23.962Z,61.00
2019-02-24T02:48:28.361Z,61.00
2019-02-24T02:51:32.748Z,62.00
2019-02-24T02:54:37.150Z,61.00
2019-02-24T02:57:41.552Z,62.00
2019-02-24T03:00:45.933Z,62.00
2019-02-24T03:03:50.341Z,62.00
2019-02-24T03:06:54.720Z,62.00
2019-02-24T03:09:59.122Z,62.00
2019-02-24T03:13:03.521Z,62.00
2019-02-24T03:16:07.903Z,62.00
2019-02-24T03:19:01.227Z,62.00
2019-02-24T03:22:05.619Z,62.00
2019-02-24T03:25:10.021Z,62.00
2019-02-24T03:28:14.420Z,62.00
2019-02-24T03:31:18.799Z,62.00
2019-02-24T03:34:23.198Z,62.00
2019-02-24T03:37:27.579Z,62.00
2019-02-24T03:40:31.990Z,62.00
2019-02-24T03:43:36.392Z,62.00
2019-02-24T03:46:40.776Z,63.00
2019-02-24T03:49:45.179Z,63.00
2019-02-24T03:52:49.555Z,62.00
2019-02-24T03:55:53.960Z,63.00
2019-02-24T03:58:47.293Z,63.00
2019-02-24T04:01:51.669Z,63.00
2019-02-24T04:04:56.076Z,63.00
2019-02-24T04:08:00.453Z,63.00
2019-02-24T04:11:04.857Z,63.00
2019-02-24T04:14:09.268Z,63.00
2019-02-24T04:17:13.650Z,63.00
2019-02-24T04:20:18.062Z,63.00
2019-02-24T04:23:22.442Z,63.00
2019-02-24T04:26:26.851Z,63.00
2019-02-24T04:29:24.712Z,63.00
2019-02-24T04:32:24.562Z,63.00
2019-02-24T04:35:28.973Z,63.00
2019-02-24T04:38:33.355Z,63.00
2019-02-24T04:41:37.764Z,62.00
2019-02-24T04:44:42.154Z,63.00
2019-02-24T04:47:46.539Z,63.00
2019-02-24T04:50:50.936Z,63.00
2019-02-24T04:53:55.329Z,62.00
2019-02-24T04:56:59.726Z,62.00
2019-02-24T05:00:04.125Z,63.00
2019-02-24T05:03:08.526Z,63.00
2019-02-24T05:06:12.920Z,63.00
2019-02-24T05:09:06.223Z,63.00
2019-02-24T05:12:10.626Z,63.00
2019-02-24T05:15:15.028Z,63.00
2019-02-24T05:18:19.409Z,63.00
2019-02-24T05:21:23.810Z,63.00
2019-02-24T05:24:28.200Z,63.00
2019-02-24T05:27:32.606Z,63.00
2019-02-24T05:30:36.987Z,63.00
2019-02-24T05:33:41.391Z,63.00
2019-02-24T05:36:45.791Z,63.00
2019-02-24T05:39:50.176Z,63.00
2019-02-24T05:42:54.578Z,63.00
2019-02-24T05:45:58.991Z,63.00
2019-02-24T05:48:52.282Z,63.00
2019-02-24T05:51:56.683Z,63.00
2019-02-24T05:55:01.075Z,63.00
2019-02-24T05:58:05.486Z,63.00
2019-02-24T06:01:09.861Z,63.00
2019-02-24T06:04:14.263Z,63.00
2019-02-24T06:07:18.660Z,63.00
2019-02-24T06:10:23.043Z,63.00
2019-02-24T06:13:27.447Z,63.00
2019-02-24T06:16:31.829Z,63.00
2019-02-24T06:19:25.194Z,63.00
2019-02-24T06:22:29.601Z,63.00
2019-02-24T06:25:35.002Z,63.00
2019-02-24T06:28:39.391Z,63.00
2019-02-24T06:31:44.264Z,63.00
2019-02-24T06:34:48.667Z,62.00
2019-02-24T06:37:53.067Z,62.00
2019-02-24T06:40:57.457Z,62.00
2019-02-24T06:44:01.862Z,63.00
2019-02-24T06:47:06.246Z,62.00
2019-02-24T06:50:10.653Z,62.00
2019-02-24T06:53:15.064Z,62.00
2019-02-24T06:56:19.450Z,62.00
2019-02-24T06:59:12.784Z,63.00
2019-02-24T07:02:17.174Z,61.00
2019-02-24T07:05:21.588Z,61.00
2019-02-24T07:08:25.990Z,59.00
2019-02-24T07:11:30.380Z,60.00
2019-02-24T07:14:34.782Z,60.00
2019-02-24T07:17:39.168Z,60.00
2019-02-24T07:20:43.575Z,60.00
2019-02-24T07:23:47.970Z,60.00
2019-02-24T07:26:52.359Z,61.00
2019-02-24T07:29:56.800Z,60.00
2019-02-24T07:33:01.197Z,60.00
2019-02-24T07:36:05.624Z,62.00
2019-02-24T07:38:58.968Z,60.00
2019-02-24T07:42:03.359Z,59.00
2019-02-24T07:45:07.779Z,59.00
2019-02-24T07:48:12.173Z,60.00
2019-02-24T07:51:16.591Z,61.00
2019-02-24T07:54:21.015Z,59.00
2019-02-24T07:57:25.409Z,59.00
2019-02-24T08:00:32.330Z,60.00
2019-02-24T08:03:34.246Z,61.00
2019-02-24T08:06:38.664Z,60.00
2019-02-24T08:09:43.091Z,58.00
2019-02-24T08:12:47.499Z,60.00
2019-02-24T08:15:51.928Z,60.00
2019-02-24T08:18:49.602Z,59.00
2019-02-24T08:21:49.715Z,59.00
2019-02-24T08:24:54.148Z,58.00
2019-02-24T08:27:58.557Z,59.00
2019-02-24T08:31:02.995Z,59.00
2019-02-24T08:34:07.405Z,58.00
2019-02-24T08:37:11.835Z,60.00
2019-02-24T08:40:16.272Z,59.00
2019-02-24T08:43:20.691Z,58.00
2019-02-24T08:46:25.123Z,59.00
2019-02-24T08:49:18.466Z,60.00
2019-02-24T08:52:22.904Z,58.00
2019-02-24T08:55:27.347Z,65.00
2019-02-24T08:58:31.766Z,60.00
2019-02-24T09:01:36.217Z,60.00
2019-02-24T09:04:40.625Z,63.00
2019-02-24T09:07:45.065Z,59.00
2019-02-24T09:10:49.511Z,60.00
2019-02-24T09:13:53.926Z,60.00
2019-02-24T09:16:58.369Z,58.00
2019-02-24T09:20:02.794Z,58.00
2019-02-24T09:23:07.234Z,60.00
2019-02-24T09:26:11.676Z,59.00
2019-02-24T09:29:06.037Z,59.00
2019-02-24T09:32:10.486Z,58.00
2019-02-24T09:35:14.914Z,59.00
2019-02-24T09:38:19.365Z,58.00
2019-02-24T09:41:24.833Z,58.00
2019-02-24T09:44:29.263Z,58.00
2019-02-24T09:47:34.722Z,62.00
2019-02-24T09:50:39.157Z,58.00
2019-02-24T09:53:43.610Z,60.00
2019-02-24T09:56:48.093Z,63.00
2019-02-24T09:59:52.531Z,59.00
2019-02-24T10:02:57.620Z,64.00
2019-02-24T10:06:01.441Z,59.00
2019-02-24T10:08:54.825Z,59.00
2019-02-24T10:11:59.284Z,59.00
2019-02-24T10:15:03.723Z,60.00
2019-02-24T10:18:08.180Z,61.00
2019-02-24T10:21:12.624Z,58.00
2019-02-24T10:24:17.104Z,60.00
2019-02-24T10:27:21.577Z,58.00
2019-02-24T10:30:26.035Z,65.00
2019-02-24T10:33:30.492Z,61.00
2019-02-24T10:36:34.931Z,61.00
2019-02-24T10:39:39.389Z,60.00
2019-02-24T10:42:43.851Z,61.00
2019-02-24T10:45:48.293Z,62.00
2019-02-24T10:48:41.681Z,60.00
2019-02-24T10:51:46.115Z,62.00
2019-02-24T10:54:50.575Z,64.00
2019-02-24T10:57:55.042Z,65.00
2019-02-24T11:00:59.476Z,66.00
2019-02-24T11:04:03.938Z,61.00
2019-02-24T11:07:08.373Z,59.00
2019-02-24T11:10:12.826Z,63.00
2019-02-24T11:13:17.288Z,65.00
2019-02-24T11:16:21.731Z,66.00
2019-02-24T11:19:15.108Z,62.00
2019-02-24T11:22:19.545Z,61.00
2019-02-24T11:25:24.678Z,63.00
2019-02-24T11:28:28.437Z,63.00
2019-02-24T11:31:38.393Z,64.00
2019-02-24T11:34:37.357Z,62.00
2019-02-24T11:37:41.813Z,60.00
2019-02-24T11:40:46.257Z,60.00
2019-02-24T11:43:50.697Z,63.00
2019-02-24T11:46:55.156Z,61.00
2019-02-24T11:49:59.619Z,61.00
2019-02-24T11:53:04.058Z,62.00
2019-02-24T11:56:08.575Z,63.00
2019-02-24T11:59:02.170Z,58.00
2019-02-24T12:02:06.786Z,59.00
2019-02-24T12:05:11.259Z,59.00
2019-02-24T12:08:15.867Z,63.00
2019-02-24T12:11:20.630Z,59.00
2019-02-24T12:14:25.233Z,59.00
2019-02-24T12:17:29.782Z,67.00
2019-02-24T12:20:34.483Z,61.00
2019-02-24T12:23:38.984Z,61.00
2019-02-24T12:26:43.538Z,59.00
2019-02-24T12:29:48.261Z,60.00
2019-02-24T12:32:52.667Z,63.00
2019-02-24T12:35:57.135Z,60.00
2019-02-24T12:38:50.544Z,64.00
2019-02-24T12:41:55.075Z,75.00
2019-02-24T12:44:59.797Z,61.00
2019-02-24T12:48:04.309Z,59.00
2019-02-24T12:51:08.952Z,60.00
2019-02-24T12:54:14.248Z,60.00
2019-02-24T12:57:18.022Z,60.00
2019-02-24T13:00:22.487Z,59.00
2019-02-24T13:03:26.955Z,61.00
2019-02-24T13:06:31.586Z,63.00
2019-02-24T13:09:24.972Z,60.00
2019-02-24T13:12:29.521Z,60.00
2019-02-24T13:15:34.868Z,59.00
2019-02-24T13:18:39.460Z,60.00
2019-02-24T13:21:44.021Z,61.00
2019-02-24T13:24:48.539Z,58.00
2019-02-24T13:27:53.172Z,60.00
2019-02-24T13:30:57.821Z,59.00
2019-02-24T13:34:02.330Z,65.00
2019-02-24T13:37:06.887Z,60.00
2019-02-24T13:40:11.569Z,63.00
2019-02-24T13:43:16.728Z,64.00
2019-02-24T13:46:20.694Z,65.00
2019-02-24T13:49:14.105Z,59.00
2019-02-24T13:52:18.694Z,59.00
2019-02-24T13:55:23.282Z,60.00
2019-02-24T13:58:27.806Z,60.00
2019-02-24T14:01:32.461Z,62.00
2019-02-24T14:04:36.976Z,60.00
2019-02-24T14:07:41.549Z,60.00
2019-02-24T14:10:46.043Z,62.00
2019-02-24T14:13:50.650Z,60.00
2019-02-24T14:16:55.350Z,59.00
2019-02-24T14:20:00.044Z,59.00
2019-02-24T14:23:04.619Z,60.00
2019-02-24T14:26:09.270Z,61.00
2019-02-24T14:29:02.418Z,60.00
2019-02-24T14:32:07.026Z,60.00
2019-02-24T14:35:11.472Z,61.00
2019-02-24T14:38:15.930Z,59.00
2019-02-24T14:41:20.386Z,59.00
2019-02-24T14:44:24.814Z,60.00
2019-02-24T14:47:29.276Z,58.00
2019-02-24T14:50:33.707Z,59.00
2019-02-24T14:53:38.158Z,60.00
2019-02-24T14:56:42.587Z,60.00
2019-02-24T14:59:47.040Z,61.00
2019-02-24T15:02:51.491Z,60.00
2019-02-24T15:05:55.940Z,60.00
2019-02-24T15:08:49.325Z,63.00
2019-02-24T15:11:53.760Z,64.00
2019-02-24T15:14:58.258Z,67.00
2019-02-24T15:18:02.661Z,62.00
2019-02-24T15:21:07.090Z,70.00
2019-02-24T15:24:12.560Z,69.00
2019-02-24T15:27:16.993Z,68.00
2019-02-24T15:30:21.453Z,69.00
2019-02-24T15:33:25.906Z,66.00
2019-02-24T15:36:30.335Z,68.00
2019-02-24T15:39:23.713Z,63.00
2019-02-24T15:42:28.141Z,62.00
2019-02-24T15:45:32.587Z,63.00
2019-02-24T15:48:37.071Z,65.00
2019-02-24T15:51:41.525Z,63.00
2019-02-24T15:54:45.970Z,61.00
2019-02-24T15:57:50.390Z,64.00
2019-02-24T16:00:54.831Z,64.00
2019-02-24T16:03:59.253Z,60.00
2019-02-24T16:07:03.689Z,59.00
2019-02-24T16:10:08.138Z,60.00
2019-02-24T16:13:16.901Z,65.00
2019-02-24T16:16:17.008Z,60.00
2019-02-24T16:19:10.372Z,60.00
2019-02-24T16:22:14.792Z,66.00
2019-02-24T16:25:19.226Z,59.00
2019-02-24T16:28:23.637Z,59.00
2019-02-24T16:31:28.067Z,59.00
2019-02-24T16:34:32.494Z,59.00
2019-02-24T16:37:39.002Z,58.00
2019-02-24T16:40:41.325Z,59.00
2019-02-24T16:43:45.740Z,59.00
2019-02-24T16:46:50.165Z,59.00
2019-02-24T16:49:54.597Z,60.00
2019-02-24T16:52:58.987Z,59.00
2019-02-24T16:56:03.429Z,59.00
2019-02-24T16:58:56.776Z,59.00
2019-02-24T17:02:01.200Z,59.00
2019-02-24T17:05:05.782Z,64.00
2019-02-24T17:08:10.231Z,62.00
2019-02-24T17:11:14.885Z,60.00
2019-02-24T17:14:19.459Z,60.00
2019-02-24T17:17:24.042Z,60.00
2019-02-24T17:20:28.593Z,59.00
2019-02-24T17:23:33.158Z,59.00
2019-02-24T17:26:37.725Z,59.00
2019-02-24T17:29:42.159Z,61.00
2019-02-24T17:32:46.660Z,59.00
2019-02-24T17:35:51.220Z,59.00
2019-02-24T17:38:44.679Z,59.00
2019-02-24T17:41:49.250Z,59.00
2019-02-24T17:44:53.642Z,59.00
2019-02-24T17:47:58.306Z,63.00
2019-02-24T17:51:03.860Z,60.00
2019-02-24T17:54:08.299Z,59.00
2019-02-24T17:57:12.794Z,60.00
2019-02-24T18:00:17.235Z,59.00
2019-02-24T18:03:21.939Z,59.00
2019-02-24T18:06:26.452Z,60.00
2019-02-24T18:09:19.903Z,59.00
2019-02-24T18:12:24.340Z,59.00
2019-02-24T18:15:28.735Z,59.00
2019-02-24T18:18:33.167Z,59.00
2019-02-24T18:21:37.837Z,59.00
2019-02-24T18:24:42.418Z,59.00
2019-02-24T18:27:46.925Z,59.00
2019-02-24T18:30:51.394Z,59.00
2019-02-24T18:33:55.786Z,59.00
2019-02-24T18:37:00.213Z,59.00
2019-02-24T18:40:04.757Z,59.00
2019-02-24T18:43:09.187Z,59.00
2019-02-24T18:46:13.584Z,59.00
2019-02-24T18:49:06.946Z,59.00
2019-02-24T18:52:11.507Z,59.00
2019-02-24T18:55:16.003Z,59.00
2019-02-24T18:58:21.696Z,60.00
2019-02-24T19:01:25.892Z,60.00
2019-02-24T19:04:30.367Z,59.00
2019-02-24T19:07:34.757Z,59.00
2019-02-24T19:10:39.181Z,59.00
2019-02-24T19:13:43.584Z,59.00
2019-02-24T19:16:49.181Z,59.00
2019-02-24T19:19:52.370Z,59.00
2019-02-24T19:22:56.755Z,59.00
2019-02-24T19:26:01.157Z,59.00
2019-02-24T19:28:54.491Z,59.00
2019-02-24T19:31:58.871Z,59.00
2019-02-24T19:35:03.276Z,59.00
2019-02-24T19:38:07.660Z,59.00
2019-02-24T19:41:12.067Z,59.00
2019-02-24T19:44:16.468Z,59.00
2019-02-24T19:47:20.848Z,59.00
2019-02-24T19:50:25.254Z,59.00
2019-02-24T19:53:29.636Z,59.00
2019-02-24T19:56:34.040Z,59.00
2019-02-24T19:59:27.368Z,59.00
2019-02-24T20:02:31.752Z,59.00
2019-02-24T20:05:36.155Z,59.00
2019-02-24T20:08:40.536Z,59.00
2019-02-24T20:11:44.940Z,59.00
2019-02-24T20:14:49.346Z,59.00
2019-02-24T20:17:53.724Z,59.00
2019-02-24T20:20:58.133Z,59.00
2019-02-24T20:24:02.510Z,59.00
2019-02-24T20:27:06.913Z,59.00
2019-02-24T20:30:11.323Z,60.00
2019-02-24T20:33:15.704Z,59.00
2019-02-24T20:36:20.107Z,59.00
2019-02-24T20:39:13.413Z,59.00
2019-02-24T20:42:17.815Z,59.00
2019-02-24T20:45:22.198Z,59.00
2019-02-24T20:48:26.594Z,59.00
2019-02-24T20:51:30.996Z,59.00
2019-02-24T20:54:35.376Z,59.00
2019-02-24T20:57:39.780Z,59.00
2019-02-24T21:00:44.161Z,60.00
2019-02-24T21:03:48.561Z,59.00
2019-02-24T21:06:52.963Z,59.00
2019-02-24T21:09:57.340Z,59.00
2019-02-24T21:13:01.740Z,60.00
2019-02-24T21:16:06.125Z,60.00
2019-02-24T21:18:59.454Z,59.00
2019-02-24T21:22:04.865Z,59.00
2019-02-24T21:25:09.246Z,59.00
2019-02-24T21:28:13.646Z,59.00
2019-02-24T21:31:18.026Z,59.00
2019-02-24T21:34:22.427Z,59.00
2019-02-24T21:37:26.828Z,59.00
2019-02-24T21:40:31.207Z,59.00
2019-02-24T21:43:35.613Z,59.00
2019-02-24T21:46:40.011Z,60.00
2019-02-24T21:49:44.398Z,61.00
2019-02-24T21:52:48.804Z,60.00
2019-02-24T21:55:53.196Z,60.00
2019-02-24T21:58:46.533Z,63.00
2019-02-24T22:01:50.920Z,62.00
2019-02-24T22:04:55.327Z,63.00
2019-02-24T22:07:59.730Z,62.00
2019-02-24T22:11:04.113Z,62.00
2019-02-24T22:14:08.521Z,62.00
2019-02-24T22:17:12.921Z,62.00
2019-02-24T22:20:17.332Z,63.00
2019-02-24T22:23:21.736Z,63.00
2019-02-24T22:26:26.121Z,63.00
2019-02-24T22:29:19.460Z,62.00
2019-02-24T22:32:23.847Z,63.00
2019-02-24T22:35:28.251Z,62.00
2019-02-24T22:38:32.661Z,62.00
2019-02-24T22:41:37.047Z,62.00
2019-02-24T22:44:41.451Z,63.00
2019-02-24T22:47:45.837Z,63.00
2019-02-24T22:50:50.249Z,62.00
2019-02-24T22:53:54.651Z,63.00
2019-02-24T22:56:59.039Z,63.00
2019-02-24T23:00:03.444Z,62.00
2019-02-24T23:03:07.832Z,63.00
2019-02-24T23:06:12.239Z,62.00
2019-02-24T23:09:05.575Z,62.00
2019-02-24T23:12:09.961Z,62.00
2019-02-24T23:15:14.372Z,62.00
2019-02-24T23:18:18.757Z,62.00
2019-02-24T23:21:23.163Z,62.00
2019-02-24T23:24:27.571Z,62.00
2019-02-24T23:27:31.957Z,62.00
2019-02-24T23:30:36.365Z,62.00
2019-02-24T23:33:40.774Z,62.00
2019-02-24T23:36:45.156Z,63.00
2019-02-24T23:39:49.565Z,63.00
2019-02-24T23:42:53.947Z,63.00
2019-02-24T23:45:58.359Z,63.00
2019-02-24T23:48:51.680Z,63.00
2019-02-24T23:51:57.097Z,63.00
2019-02-24T23:55:01.504Z,63.00
2019-02-24T23:58:05.901Z,63.00
